Terminal Aerodrome Forecast
Issued by NWS Wilmington, OH

Current Version | Previous Version | Text Only | Print | Product List | Glossary Off
Versions: 1 2 3 4 5 6 7 8 9 10 11 12 13 14 15 16 17 18 19 20 21 22 23

000
FTUS41 KILN 252300
TAFCMH
TAF
KCMH 252330Z 2600/2624 09004KT 5SM -SN BR OVC007
      TEMPO 2602/2603 1SM -SN
     FM260300 02013G21KT 1SM -SN OVC005
      TEMPO 2603/2607 1/2SM SN OVC002
     FM261000 36014G20KT 5SM -SN OVC015
     FM261300 34011KT P6SM OVC012=

USA.gov is the U.S. government's official web portal to all federal, state and local government web resources and services.